sensor_id;sensor_type;location;lat;lon;timestamp;P1;durP1;ratioP1;P2;durP2;ratioP2
85668;SDS011;76101;44.794;10.344;2024-01-30T00:02:36;35.53;;;18.77;;
85668;SDS011;76101;44.794;10.344;2024-01-30T00:05:37;32.47;;;17.27;;
85668;SDS011;76101;44.794;10.344;2024-01-30T00:08:37;32.30;;;17.67;;
85668;SDS011;76101;44.794;10.344;2024-01-30T00:11:37;31.35;;;16.90;;
85668;SDS011;76101;44.794;10.344;2024-01-30T00:14:38;28.50;;;16.27;;
85668;SDS011;76101;44.794;10.344;2024-01-30T00:17:38;29.92;;;16.70;;
85668;SDS011;76101;44.794;10.344;2024-01-30T00:20:39;30.75;;;16.25;;
85668;SDS011;76101;44.794;10.344;2024-01-30T00:23:39;29.65;;;16.15;;
85668;SDS011;76101;44.794;10.344;2024-01-30T00:26:39;26.83;;;15.05;;
85668;SDS011;76101;44.794;10.344;2024-01-30T00:29:40;27.75;;;15.60;;
85668;SDS011;76101;44.794;10.344;2024-01-30T00:32:40;29.58;;;16.27;;
85668;SDS011;76101;44.794;10.344;2024-01-30T00:35:40;26.27;;;15.27;;
85668;SDS011;76101;44.794;10.344;2024-01-30T00:38:41;26.13;;;15.00;;
85668;SDS011;76101;44.794;10.344;2024-01-30T00:41:41;28.08;;;14.98;;
85668;SDS011;76101;44.794;10.344;2024-01-30T00:44:42;27.65;;;15.45;;
85668;SDS011;76101;44.794;10.344;2024-01-30T00:47:42;26.27;;;15.10;;
85668;SDS011;76101;44.794;10.344;2024-01-30T00:50:43;28.77;;;16.02;;
85668;SDS011;76101;44.794;10.344;2024-01-30T00:53:44;28.40;;;16.10;;
85668;SDS011;76101;44.794;10.344;2024-01-30T00:56:45;28.23;;;15.75;;
85668;SDS011;76101;44.794;10.344;2024-01-30T00:59:45;29.48;;;15.88;;
85668;SDS011;76101;44.794;10.344;2024-01-30T01:02:46;26.52;;;15.02;;
85668;SDS011;76101;44.794;10.344;2024-01-30T01:05:46;29.75;;;16.50;;
85668;SDS011;76101;44.794;10.344;2024-01-30T01:08:47;29.60;;;16.33;;
85668;SDS011;76101;44.794;10.344;2024-01-30T01:11:47;28.93;;;15.63;;
85668;SDS011;76101;44.794;10.344;2024-01-30T01:14:47;30.17;;;15.40;;
85668;SDS011;76101;44.794;10.344;2024-01-30T01:17:48;29.77;;;16.00;;
85668;SDS011;76101;44.794;10.344;2024-01-30T01:20:48;27.50;;;14.93;;
85668;SDS011;76101;44.794;10.344;2024-01-30T01:23:49;32.92;;;16.58;;
85668;SDS011;76101;44.794;10.344;2024-01-30T01:26:52;28.47;;;15.07;;
85668;SDS011;76101;44.794;10.344;2024-01-30T01:29:53;29.30;;;15.90;;
85668;SDS011;76101;44.794;10.344;2024-01-30T01:32:53;32.28;;;15.55;;
85668;SDS011;76101;44.794;10.344;2024-01-30T01:35:57;29.13;;;16.02;;
85668;SDS011;76101;44.794;10.344;2024-01-30T01:38:58;28.23;;;15.63;;
85668;SDS011;76101;44.794;10.344;2024-01-30T01:41:58;28.08;;;14.98;;
85668;SDS011;76101;44.794;10.344;2024-01-30T01:44:58;29.23;;;15.18;;
85668;SDS011;76101;44.794;10.344;2024-01-30T01:47:59;26.70;;;14.97;;
85668;SDS011;76101;44.794;10.344;2024-01-30T01:50:59;27.98;;;14.52;;
85668;SDS011;76101;44.794;10.344;2024-01-30T01:54:00;27.40;;;14.27;;
85668;SDS011;76101;44.794;10.344;2024-01-30T01:57:03;28.00;;;14.68;;
85668;SDS011;76101;44.794;10.344;2024-01-30T02:00:04;28.08;;;15.20;;
85668;SDS011;76101;44.794;10.344;2024-01-30T02:03:05;27.48;;;14.73;;
85668;SDS011;76101;44.794;10.344;2024-01-30T02:06:06;25.63;;;14.10;;
85668;SDS011;76101;44.794;10.344;2024-01-30T02:09:07;29.25;;;15.38;;
85668;SDS011;76101;44.794;10.344;2024-01-30T02:12:09;28.33;;;14.88;;
85668;SDS011;76101;44.794;10.344;2024-01-30T02:15:12;25.88;;;13.85;;
85668;SDS011;76101;44.794;10.344;2024-01-30T02:18:13;27.33;;;14.95;;
85668;SDS011;76101;44.794;10.344;2024-01-30T02:21:15;25.35;;;13.75;;
85668;SDS011;76101;44.794;10.344;2024-01-30T02:27:16;26.33;;;13.87;;
85668;SDS011;76101;44.794;10.344;2024-01-30T02:30:17;27.00;;;14.02;;
85668;SDS011;76101;44.794;10.344;2024-01-30T02:33:17;26.63;;;13.95;;
85668;SDS011;76101;44.794;10.344;2024-01-30T02:36:17;25.52;;;13.27;;
85668;SDS011;76101;44.794;10.344;2024-01-30T02:39:18;25.52;;;13.32;;
85668;SDS011;76101;44.794;10.344;2024-01-30T02:42:18;24.95;;;12.98;;
85668;SDS011;76101;44.794;10.344;2024-01-30T02:45:19;23.48;;;13.05;;
85668;SDS011;76101;44.794;10.344;2024-01-30T02:48:19;23.77;;;12.70;;
85668;SDS011;76101;44.794;10.344;2024-01-30T02:51:19;24.48;;;12.75;;
85668;SDS011;76101;44.794;10.344;2024-01-30T02:54:20;23.15;;;12.40;;
85668;SDS011;76101;44.794;10.344;2024-01-30T02:57:20;23.35;;;12.60;;
85668;SDS011;76101;44.794;10.344;2024-01-30T03:00:27;21.67;;;11.53;;
85668;SDS011;76101;44.794;10.344;2024-01-30T03:03:30;23.17;;;12.35;;
85668;SDS011;76101;44.794;10.344;2024-01-30T03:06:31;25.40;;;13.18;;
85668;SDS011;76101;44.794;10.344;2024-01-30T03:09:31;22.95;;;13.15;;
85668;SDS011;76101;44.794;10.344;2024-01-30T03:12:32;22.17;;;12.45;;
85668;SDS011;76101;44.794;10.344;2024-01-30T03:15:33;24.13;;;12.13;;
85668;SDS011;76101;44.794;10.344;2024-01-30T03:18:33;22.00;;;11.37;;
85668;SDS011;76101;44.794;10.344;2024-01-30T03:21:33;22.75;;;12.38;;
85668;SDS011;76101;44.794;10.344;2024-01-30T03:24:34;21.25;;;12.00;;
85668;SDS011;76101;44.794;10.344;2024-01-30T03:27:34;20.52;;;11.38;;
85668;SDS011;76101;44.794;10.344;2024-01-30T03:30:34;21.48;;;11.98;;
85668;SDS011;76101;44.794;10.344;2024-01-30T03:33:36;20.20;;;10.80;;
85668;SDS011;76101;44.794;10.344;2024-01-30T03:36:36;20.85;;;11.52;;
85668;SDS011;76101;44.794;10.344;2024-01-30T03:39:37;18.85;;;10.90;;
85668;SDS011;76101;44.794;10.344;2024-01-30T03:42:37;18.88;;;10.88;;
85668;SDS011;76101;44.794;10.344;2024-01-30T03:45:38;19.85;;;10.90;;
85668;SDS011;76101;44.794;10.344;2024-01-30T03:48:38;18.23;;;10.60;;
85668;SDS011;76101;44.794;10.344;2024-01-30T03:51:39;18.45;;;10.60;;
85668;SDS011;76101;44.794;10.344;2024-01-30T03:54:39;18.40;;;10.48;;
85668;SDS011;76101;44.794;10.344;2024-01-30T04:04:27;19.13;;;10.20;;
85668;SDS011;76101;44.794;10.344;2024-01-30T04:07:27;19.80;;;10.87;;
85668;SDS011;76101;44.794;10.344;2024-01-30T04:10:29;19.85;;;10.93;;
85668;SDS011;76101;44.794;10.344;2024-01-30T04:13:29;18.33;;;10.40;;
85668;SDS011;76101;44.794;10.344;2024-01-30T04:16:30;19.38;;;10.88;;
85668;SDS011;76101;44.794;10.344;2024-01-30T04:19:30;20.92;;;11.10;;
85668;SDS011;76101;44.794;10.344;2024-01-30T04:22:30;21.15;;;11.05;;
85668;SDS011;76101;44.794;10.344;2024-01-30T04:25:31;22.58;;;11.63;;
85668;SDS011;76101;44.794;10.344;2024-01-30T04:28:31;20.27;;;10.93;;
85668;SDS011;76101;44.794;10.344;2024-01-30T04:31:32;20.92;;;11.15;;
85668;SDS011;76101;44.794;10.344;2024-01-30T04:34:32;20.03;;;10.47;;
85668;SDS011;76101;44.794;10.344;2024-01-30T04:37:32;19.23;;;10.30;;
85668;SDS011;76101;44.794;10.344;2024-01-30T04:40:33;18.02;;;9.60;;
85668;SDS011;76101;44.794;10.344;2024-01-30T04:43:33;19.20;;;10.75;;
85668;SDS011;76101;44.794;10.344;2024-01-30T04:46:34;17.48;;;9.90;;
85668;SDS011;76101;44.794;10.344;2024-01-30T04:49:34;18.13;;;9.68;;
85668;SDS011;76101;44.794;10.344;2024-01-30T04:52:35;17.27;;;9.70;;
85668;SDS011;76101;44.794;10.344;2024-01-30T04:55:35;18.33;;;9.23;;
85668;SDS011;76101;44.794;10.344;2024-01-30T04:58:36;20.02;;;10.18;;
85668;SDS011;76101;44.794;10.344;2024-01-30T05:01:36;18.33;;;10.45;;
85668;SDS011;76101;44.794;10.344;2024-01-30T05:04:37;18.25;;;9.82;;
85668;SDS011;76101;44.794;10.344;2024-01-30T05:07:38;18.93;;;10.00;;
85668;SDS011;76101;44.794;10.344;2024-01-30T05:10:39;19.52;;;10.35;;
85668;SDS011;76101;44.794;10.344;2024-01-30T05:13:39;19.08;;;10.50;;
85668;SDS011;76101;44.794;10.344;2024-01-30T05:16:40;20.20;;;10.95;;
85668;SDS011;76101;44.794;10.344;2024-01-30T05:19:42;20.10;;;10.80;;
85668;SDS011;76101;44.794;10.344;2024-01-30T05:22:43;18.75;;;10.02;;
85668;SDS011;76101;44.794;10.344;2024-01-30T05:25:44;19.83;;;10.48;;
85668;SDS011;76101;44.794;10.344;2024-01-30T05:28:45;18.92;;;10.48;;
85668;SDS011;76101;44.794;10.344;2024-01-30T05:31:45;18.73;;;10.23;;
85668;SDS011;76101;44.794;10.344;2024-01-30T05:34:46;19.65;;;10.57;;
85668;SDS011;76101;44.794;10.344;2024-01-30T05:37:47;18.67;;;10.02;;
85668;SDS011;76101;44.794;10.344;2024-01-30T05:40:49;21.45;;;10.57;;
85668;SDS011;76101;44.794;10.344;2024-01-30T05:43:49;19.55;;;10.48;;
85668;SDS011;76101;44.794;10.344;2024-01-30T05:46:50;20.48;;;10.95;;
85668;SDS011;76101;44.794;10.344;2024-01-30T05:49:58;22.40;;;11.18;;
85668;SDS011;76101;44.794;10.344;2024-01-30T05:52:58;21.75;;;10.38;;
85668;SDS011;76101;44.794;10.344;2024-01-30T06:03:13;19.02;;;10.07;;
85668;SDS011;76101;44.794;10.344;2024-01-30T06:06:14;21.25;;;10.38;;
85668;SDS011;76101;44.794;10.344;2024-01-30T06:09:14;20.92;;;10.75;;
85668;SDS011;76101;44.794;10.344;2024-01-30T06:12:15;20.55;;;10.57;;
85668;SDS011;76101;44.794;10.344;2024-01-30T06:15:15;19.38;;;10.60;;
85668;SDS011;76101;44.794;10.344;2024-01-30T06:18:16;20.05;;;10.77;;
85668;SDS011;76101;44.794;10.344;2024-01-30T06:21:16;18.40;;;10.15;;
85668;SDS011;76101;44.794;10.344;2024-01-30T06:24:17;19.83;;;9.90;;
85668;SDS011;76101;44.794;10.344;2024-01-30T06:27:17;20.35;;;10.48;;
85668;SDS011;76101;44.794;10.344;2024-01-30T06:30:18;19.30;;;10.02;;
85668;SDS011;76101;44.794;10.344;2024-01-30T06:33:18;19.38;;;10.25;;
85668;SDS011;76101;44.794;10.344;2024-01-30T06:36:19;19.97;;;9.90;;
85668;SDS011;76101;44.794;10.344;2024-01-30T06:39:19;18.95;;;10.02;;
85668;SDS011;76101;44.794;10.344;2024-01-30T06:42:20;18.40;;;9.10;;
85668;SDS011;76101;44.794;10.344;2024-01-30T06:45:20;17.75;;;9.73;;
85668;SDS011;76101;44.794;10.344;2024-01-30T06:48:20;19.10;;;9.70;;
85668;SDS011;76101;44.794;10.344;2024-01-30T06:51:21;17.05;;;9.40;;
85668;SDS011;76101;44.794;10.344;2024-01-30T06:54:21;18.00;;;10.15;;
85668;SDS011;76101;44.794;10.344;2024-01-30T06:57:21;19.20;;;10.60;;
85668;SDS011;76101;44.794;10.344;2024-01-30T07:00:22;18.95;;;10.25;;
85668;SDS011;76101;44.794;10.344;2024-01-30T07:03:23;18.88;;;9.55;;
85668;SDS011;76101;44.794;10.344;2024-01-30T07:06:23;17.60;;;9.63;;
85668;SDS011;76101;44.794;10.344;2024-01-30T07:09:24;21.33;;;10.15;;
85668;SDS011;76101;44.794;10.344;2024-01-30T07:12:25;17.27;;;9.80;;
85668;SDS011;76101;44.794;10.344;2024-01-30T07:15:26;19.60;;;10.68;;
85668;SDS011;76101;44.794;10.344;2024-01-30T07:18:26;19.45;;;10.63;;
85668;SDS011;76101;44.794;10.344;2024-01-30T07:21:26;20.57;;;10.23;;
85668;SDS011;76101;44.794;10.344;2024-01-30T07:24:28;20.00;;;10.77;;
85668;SDS011;76101;44.794;10.344;2024-01-30T07:27:28;19.98;;;10.98;;
85668;SDS011;76101;44.794;10.344;2024-01-30T07:30:29;19.33;;;10.37;;
85668;SDS011;76101;44.794;10.344;2024-01-30T07:33:29;20.70;;;10.43;;
85668;SDS011;76101;44.794;10.344;2024-01-30T07:36:39;20.85;;;10.88;;
85668;SDS011;76101;44.794;10.344;2024-01-30T07:39:48;21.85;;;10.50;;
85668;SDS011;76101;44.794;10.344;2024-01-30T07:58:43;20.50;;;10.73;;
85668;SDS011;76101;44.794;10.344;2024-01-30T08:01:44;22.55;;;11.43;;
85668;SDS011;76101;44.794;10.344;2024-01-30T08:04:45;21.40;;;11.50;;
85668;SDS011;76101;44.794;10.344;2024-01-30T08:07:51;21.60;;;11.48;;
85668;SDS011;76101;44.794;10.344;2024-01-30T08:10:52;25.02;;;11.70;;
85668;SDS011;76101;44.794;10.344;2024-01-30T08:13:52;20.77;;;10.95;;
85668;SDS011;76101;44.794;10.344;2024-01-30T08:16:53;20.95;;;10.43;;
85668;SDS011;76101;44.794;10.344;2024-01-30T08:19:54;20.00;;;10.40;;
85668;SDS011;76101;44.794;10.344;2024-01-30T08:22:54;22.73;;;10.93;;
85668;SDS011;76101;44.794;10.344;2024-01-30T08:25:55;20.98;;;10.57;;
85668;SDS011;76101;44.794;10.344;2024-01-30T08:51:38;22.17;;;10.40;;
85668;SDS011;76101;44.794;10.344;2024-01-30T08:54:51;20.83;;;10.02;;
85668;SDS011;76101;44.794;10.344;2024-01-30T08:57:51;22.20;;;11.70;;
85668;SDS011;76101;44.794;10.344;2024-01-30T09:00:52;20.42;;;9.77;;
85668;SDS011;76101;44.794;10.344;2024-01-30T09:03:52;19.77;;;10.70;;
85668;SDS011;76101;44.794;10.344;2024-01-30T09:06:53;22.42;;;10.70;;
85668;SDS011;76101;44.794;10.344;2024-01-30T09:09:53;20.43;;;10.73;;
85668;SDS011;76101;44.794;10.344;2024-01-30T09:12:54;21.63;;;10.98;;
85668;SDS011;76101;44.794;10.344;2024-01-30T09:15:54;25.42;;;10.82;;
85668;SDS011;76101;44.794;10.344;2024-01-30T09:18:55;19.45;;;10.20;;
85668;SDS011;76101;44.794;10.344;2024-01-30T09:21:56;19.33;;;10.35;;
85668;SDS011;76101;44.794;10.344;2024-01-30T09:24:56;20.25;;;9.80;;
85668;SDS011;76101;44.794;10.344;2024-01-30T09:27:57;20.90;;;10.18;;
85668;SDS011;76101;44.794;10.344;2024-01-30T09:30:58;19.65;;;10.35;;
85668;SDS011;76101;44.794;10.344;2024-01-30T09:33:58;23.83;;;11.35;;
85668;SDS011;76101;44.794;10.344;2024-01-30T09:36:59;20.23;;;10.80;;
85668;SDS011;76101;44.794;10.344;2024-01-30T09:40:00;18.50;;;10.38;;
85668;SDS011;76101;44.794;10.344;2024-01-30T09:43:00;18.67;;;10.48;;
85668;SDS011;76101;44.794;10.344;2024-01-30T09:46:01;24.63;;;12.00;;
85668;SDS011;76101;44.794;10.344;2024-01-30T09:49:03;20.10;;;10.77;;
85668;SDS011;76101;44.794;10.344;2024-01-30T09:52:10;20.05;;;11.07;;
85668;SDS011;76101;44.794;10.344;2024-01-30T09:55:11;19.90;;;11.27;;
85668;SDS011;76101;44.794;10.344;2024-01-30T09:58:12;19.05;;;10.60;;
85668;SDS011;76101;44.794;10.344;2024-01-30T10:01:13;17.83;;;10.38;;
85668;SDS011;76101;44.794;10.344;2024-01-30T10:04:18;20.65;;;10.60;;
85668;SDS011;76101;44.794;10.344;2024-01-30T10:07:19;22.27;;;11.30;;
85668;SDS011;76101;44.794;10.344;2024-01-30T10:10:26;19.20;;;11.27;;
85668;SDS011;76101;44.794;10.344;2024-01-30T10:13:27;30.88;;;10.80;;
85668;SDS011;76101;44.794;10.344;2024-01-30T10:16:27;18.13;;;10.30;;
85668;SDS011;76101;44.794;10.344;2024-01-30T10:19:28;20.38;;;10.77;;
85668;SDS011;76101;44.794;10.344;2024-01-30T11:13:09;26.58;;;13.15;;
85668;SDS011;76101;44.794;10.344;2024-01-30T11:16:10;24.23;;;13.15;;
85668;SDS011;76101;44.794;10.344;2024-01-30T11:19:11;23.70;;;13.05;;
85668;SDS011;76101;44.794;10.344;2024-01-30T11:22:25;26.77;;;14.50;;
85668;SDS011;76101;44.794;10.344;2024-01-30T11:25:26;23.58;;;13.73;;
85668;SDS011;76101;44.794;10.344;2024-01-30T11:32:29;26.00;;;13.60;;
85668;SDS011;76101;44.794;10.344;2024-01-30T11:35:50;27.30;;;14.13;;
85668;SDS011;76101;44.794;10.344;2024-01-30T11:38:50;29.88;;;15.75;;
85668;SDS011;76101;44.794;10.344;2024-01-30T11:41:51;32.15;;;15.98;;
85668;SDS011;76101;44.794;10.344;2024-01-30T11:44:54;34.83;;;16.95;;
85668;SDS011;76101;44.794;10.344;2024-01-30T11:47:55;34.80;;;16.65;;
85668;SDS011;76101;44.794;10.344;2024-01-30T11:50:56;35.40;;;17.45;;
85668;SDS011;76101;44.794;10.344;2024-01-30T11:53:57;32.67;;;16.83;;
85668;SDS011;76101;44.794;10.344;2024-01-30T11:56:57;36.85;;;17.83;;
85668;SDS011;76101;44.794;10.344;2024-01-30T11:59:58;36.78;;;18.15;;
85668;SDS011;76101;44.794;10.344;2024-01-30T12:02:58;38.15;;;18.75;;
85668;SDS011;76101;44.794;10.344;2024-01-30T12:06:03;34.40;;;18.20;;
85668;SDS011;76101;44.794;10.344;2024-01-30T12:09:21;35.13;;;18.23;;
85668;SDS011;76101;44.794;10.344;2024-01-30T12:12:28;34.80;;;17.70;;
85668;SDS011;76101;44.794;10.344;2024-01-30T12:15:29;38.70;;;18.35;;
85668;SDS011;76101;44.794;10.344;2024-01-30T12:18:29;38.53;;;19.00;;
85668;SDS011;76101;44.794;10.344;2024-01-30T12:21:30;39.10;;;19.63;;
85668;SDS011;76101;44.794;10.344;2024-01-30T12:24:30;37.92;;;19.30;;
85668;SDS011;76101;44.794;10.344;2024-01-30T12:27:31;38.22;;;18.45;;
85668;SDS011;76101;44.794;10.344;2024-01-30T12:30:34;41.88;;;19.55;;
85668;SDS011;76101;44.794;10.344;2024-01-30T12:33:35;42.28;;;19.38;;
85668;SDS011;76101;44.794;10.344;2024-01-30T12:36:36;36.17;;;19.30;;
85668;SDS011;76101;44.794;10.344;2024-01-30T12:39:36;43.97;;;20.80;;
85668;SDS011;76101;44.794;10.344;2024-01-30T12:42:48;47.05;;;21.58;;
85668;SDS011;76101;44.794;10.344;2024-01-30T12:45:49;38.42;;;20.10;;
85668;SDS011;76101;44.794;10.344;2024-01-30T13:04:41;47.25;;;20.33;;
85668;SDS011;76101;44.794;10.344;2024-01-30T13:07:42;42.28;;;21.02;;
85668;SDS011;76101;44.794;10.344;2024-01-30T13:10:42;45.55;;;21.65;;
85668;SDS011;76101;44.794;10.344;2024-01-30T13:13:43;40.95;;;20.40;;
85668;SDS011;76101;44.794;10.344;2024-01-30T13:16:43;44.13;;;21.23;;
85668;SDS011;76101;44.794;10.344;2024-01-30T13:19:44;50.78;;;21.63;;
85668;SDS011;76101;44.794;10.344;2024-01-30T13:22:44;43.00;;;21.40;;
85668;SDS011;76101;44.794;10.344;2024-01-30T13:25:45;44.83;;;21.52;;
85668;SDS011;76101;44.794;10.344;2024-01-30T13:28:45;45.47;;;22.17;;
85668;SDS011;76101;44.794;10.344;2024-01-30T13:31:46;45.03;;;22.30;;
85668;SDS011;76101;44.794;10.344;2024-01-30T13:34:46;43.45;;;21.92;;
85668;SDS011;76101;44.794;10.344;2024-01-30T13:37:48;42.00;;;20.50;;
85668;SDS011;76101;44.794;10.344;2024-01-30T13:56:39;45.20;;;21.80;;
85668;SDS011;76101;44.794;10.344;2024-01-30T13:59:42;45.00;;;21.33;;
85668;SDS011;76101;44.794;10.344;2024-01-30T14:02:43;37.83;;;20.08;;
85668;SDS011;76101;44.794;10.344;2024-01-30T14:05:43;43.40;;;21.45;;
85668;SDS011;76101;44.794;10.344;2024-01-30T14:08:50;45.57;;;21.23;;
85668;SDS011;76101;44.794;10.344;2024-01-30T14:11:50;42.60;;;21.80;;
85668;SDS011;76101;44.794;10.344;2024-01-30T14:14:51;47.33;;;21.43;;
85668;SDS011;76101;44.794;10.344;2024-01-30T14:17:54;45.35;;;22.08;;
85668;SDS011;76101;44.794;10.344;2024-01-30T14:20:56;46.38;;;22.30;;
85668;SDS011;76101;44.794;10.344;2024-01-30T14:23:56;47.28;;;24.00;;
85668;SDS011;76101;44.794;10.344;2024-01-30T14:26:57;46.92;;;22.60;;
85668;SDS011;76101;44.794;10.344;2024-01-30T14:29:59;48.72;;;24.05;;
85668;SDS011;76101;44.794;10.344;2024-01-30T14:33:00;48.28;;;23.70;;
85668;SDS011;76101;44.794;10.344;2024-01-30T14:36:00;47.72;;;23.45;;
85668;SDS011;76101;44.794;10.344;2024-01-30T14:39:01;55.58;;;25.58;;
85668;SDS011;76101;44.794;10.344;2024-01-30T14:42:01;49.23;;;22.97;;
85668;SDS011;76101;44.794;10.344;2024-01-30T14:45:02;53.45;;;23.88;;
85668;SDS011;76101;44.794;10.344;2024-01-30T14:48:02;48.50;;;24.15;;
85668;SDS011;76101;44.794;10.344;2024-01-30T14:51:03;50.13;;;23.73;;
85668;SDS011;76101;44.794;10.344;2024-01-30T14:54:04;50.33;;;24.38;;
85668;SDS011;76101;44.794;10.344;2024-01-30T14:57:04;46.00;;;24.35;;
85668;SDS011;76101;44.794;10.344;2024-01-30T15:00:05;46.20;;;24.00;;
85668;SDS011;76101;44.794;10.344;2024-01-30T15:03:06;46.22;;;24.00;;
85668;SDS011;76101;44.794;10.344;2024-01-30T15:06:09;44.30;;;23.30;;
85668;SDS011;76101;44.794;10.344;2024-01-30T15:09:10;41.88;;;22.67;;
85668;SDS011;76101;44.794;10.344;2024-01-30T15:12:10;47.05;;;24.58;;
85668;SDS011;76101;44.794;10.344;2024-01-30T15:15:11;43.08;;;22.35;;
85668;SDS011;76101;44.794;10.344;2024-01-30T15:18:11;44.70;;;23.90;;
85668;SDS011;76101;44.794;10.344;2024-01-30T15:21:12;43.42;;;22.75;;
85668;SDS011;76101;44.794;10.344;2024-01-30T15:24:12;43.72;;;22.50;;
85668;SDS011;76101;44.794;10.344;2024-01-30T15:27:14;47.47;;;23.48;;
85668;SDS011;76101;44.794;10.344;2024-01-30T15:30:15;41.83;;;22.30;;
85668;SDS011;76101;44.794;10.344;2024-01-30T15:33:16;42.28;;;23.42;;
85668;SDS011;76101;44.794;10.344;2024-01-30T15:36:16;39.88;;;21.92;;
85668;SDS011;76101;44.794;10.344;2024-01-30T15:39:16;41.58;;;21.38;;
85668;SDS011;76101;44.794;10.344;2024-01-30T15:42:17;42.92;;;22.17;;
85668;SDS011;76101;44.794;10.344;2024-01-30T15:45:17;40.97;;;21.73;;
85668;SDS011;76101;44.794;10.344;2024-01-30T15:48:19;37.85;;;21.02;;
85668;SDS011;76101;44.794;10.344;2024-01-30T15:51:20;38.97;;;21.55;;
85668;SDS011;76101;44.794;10.344;2024-01-30T15:54:20;38.67;;;21.93;;
85668;SDS011;76101;44.794;10.344;2024-01-30T15:57:22;38.35;;;21.13;;
85668;SDS011;76101;44.794;10.344;2024-01-30T16:00:22;39.10;;;21.27;;
85668;SDS011;76101;44.794;10.344;2024-01-30T16:03:23;38.83;;;21.98;;
85668;SDS011;76101;44.794;10.344;2024-01-30T16:06:23;40.70;;;22.75;;
85668;SDS011;76101;44.794;10.344;2024-01-30T16:09:23;38.15;;;20.52;;
85668;SDS011;76101;44.794;10.344;2024-01-30T16:12:24;38.05;;;20.80;;
85668;SDS011;76101;44.794;10.344;2024-01-30T16:15:24;42.78;;;21.45;;
85668;SDS011;76101;44.794;10.344;2024-01-30T16:18:25;40.80;;;21.92;;
85668;SDS011;76101;44.794;10.344;2024-01-30T16:21:27;39.92;;;22.05;;
85668;SDS011;76101;44.794;10.344;2024-01-30T16:24:30;39.92;;;21.00;;
85668;SDS011;76101;44.794;10.344;2024-01-30T16:31:59;37.97;;;20.75;;
85668;SDS011;76101;44.794;10.344;2024-01-30T16:34:59;39.97;;;21.88;;
85668;SDS011;76101;44.794;10.344;2024-01-30T16:38:00;41.35;;;21.33;;
85668;SDS011;76101;44.794;10.344;2024-01-30T16:41:00;39.25;;;21.23;;
85668;SDS011;76101;44.794;10.344;2024-01-30T16:44:01;41.22;;;21.77;;
85668;SDS011;76101;44.794;10.344;2024-01-30T16:47:01;38.75;;;21.42;;
85668;SDS011;76101;44.794;10.344;2024-01-30T16:50:02;42.70;;;22.02;;
85668;SDS011;76101;44.794;10.344;2024-01-30T16:53:02;43.67;;;22.58;;
85668;SDS011;76101;44.794;10.344;2024-01-30T16:56:03;41.85;;;21.50;;
85668;SDS011;76101;44.794;10.344;2024-01-30T16:59:03;38.60;;;21.88;;
85668;SDS011;76101;44.794;10.344;2024-01-30T17:02:04;40.00;;;20.77;;
85668;SDS011;76101;44.794;10.344;2024-01-30T17:05:04;40.70;;;21.75;;
85668;SDS011;76101;44.794;10.344;2024-01-30T17:08:05;41.55;;;22.02;;
85668;SDS011;76101;44.794;10.344;2024-01-30T17:11:05;38.83;;;21.33;;
85668;SDS011;76101;44.794;10.344;2024-01-30T17:14:06;42.35;;;22.02;;
85668;SDS011;76101;44.794;10.344;2024-01-30T17:17:07;40.67;;;22.05;;
85668;SDS011;76101;44.794;10.344;2024-01-30T17:20:09;40.75;;;21.95;;
85668;SDS011;76101;44.794;10.344;2024-01-30T17:23:11;43.15;;;22.33;;
85668;SDS011;76101;44.794;10.344;2024-01-30T17:26:12;42.28;;;22.33;;
85668;SDS011;76101;44.794;10.344;2024-01-30T17:29:13;45.40;;;22.48;;
85668;SDS011;76101;44.794;10.344;2024-01-30T17:32:22;40.17;;;22.27;;
85668;SDS011;76101;44.794;10.344;2024-01-30T17:35:45;38.95;;;21.55;;
85668;SDS011;76101;44.794;10.344;2024-01-30T17:38:48;45.03;;;22.33;;
85668;SDS011;76101;44.794;10.344;2024-01-30T17:42:10;44.30;;;22.63;;
85668;SDS011;76101;44.794;10.344;2024-01-30T17:45:12;39.88;;;21.65;;
85668;SDS011;76101;44.794;10.344;2024-01-30T17:48:13;42.10;;;23.13;;
85668;SDS011;76101;44.794;10.344;2024-01-30T17:51:13;44.15;;;23.73;;
85668;SDS011;76101;44.794;10.344;2024-01-30T17:54:13;43.03;;;23.52;;
85668;SDS011;76101;44.794;10.344;2024-01-30T17:57:14;44.63;;;22.73;;
85668;SDS011;76101;44.794;10.344;2024-01-30T18:00:14;45.20;;;23.67;;
85668;SDS011;76101;44.794;10.344;2024-01-30T18:07:06;47.42;;;25.00;;
85668;SDS011;76101;44.794;10.344;2024-01-30T18:10:07;48.90;;;26.60;;
85668;SDS011;76101;44.794;10.344;2024-01-30T18:13:08;47.58;;;24.40;;
85668;SDS011;76101;44.794;10.344;2024-01-30T18:16:15;50.05;;;25.30;;
85668;SDS011;76101;44.794;10.344;2024-01-30T18:19:19;48.35;;;24.27;;
85668;SDS011;76101;44.794;10.344;2024-01-30T18:22:22;49.03;;;25.35;;
85668;SDS011;76101;44.794;10.344;2024-01-30T18:25:24;51.65;;;26.52;;
85668;SDS011;76101;44.794;10.344;2024-01-30T18:28:24;54.08;;;27.13;;
85668;SDS011;76101;44.794;10.344;2024-01-30T18:31:31;58.08;;;28.40;;
85668;SDS011;76101;44.794;10.344;2024-01-30T18:34:32;55.10;;;27.75;;
85668;SDS011;76101;44.794;10.344;2024-01-30T18:37:48;52.47;;;25.25;;
85668;SDS011;76101;44.794;10.344;2024-01-30T18:41:17;50.20;;;25.63;;
85668;SDS011;76101;44.794;10.344;2024-01-30T18:44:23;51.92;;;26.23;;
85668;SDS011;76101;44.794;10.344;2024-01-30T18:47:30;52.13;;;26.17;;
85668;SDS011;76101;44.794;10.344;2024-01-30T18:50:31;50.45;;;25.10;;
85668;SDS011;76101;44.794;10.344;2024-01-30T18:53:31;51.47;;;26.42;;
85668;SDS011;76101;44.794;10.344;2024-01-30T18:56:41;52.13;;;25.15;;
85668;SDS011;76101;44.794;10.344;2024-01-30T18:59:42;54.05;;;26.27;;
85668;SDS011;76101;44.794;10.344;2024-01-30T19:02:42;53.58;;;27.55;;
85668;SDS011;76101;44.794;10.344;2024-01-30T19:05:43;52.97;;;25.52;;
85668;SDS011;76101;44.794;10.344;2024-01-30T19:08:44;62.42;;;29.90;;
85668;SDS011;76101;44.794;10.344;2024-01-30T19:11:44;57.42;;;27.60;;
85668;SDS011;76101;44.794;10.344;2024-01-30T19:14:45;55.47;;;27.30;;
85668;SDS011;76101;44.794;10.344;2024-01-30T19:17:45;52.35;;;26.45;;
85668;SDS011;76101;44.794;10.344;2024-01-30T19:20:45;54.92;;;26.30;;
85668;SDS011;76101;44.794;10.344;2024-01-30T19:23:48;49.90;;;25.65;;
85668;SDS011;76101;44.794;10.344;2024-01-30T19:26:48;49.45;;;24.50;;
85668;SDS011;76101;44.794;10.344;2024-01-30T19:29:52;52.65;;;25.58;;
85668;SDS011;76101;44.794;10.344;2024-01-30T19:32:52;52.65;;;25.98;;
85668;SDS011;76101;44.794;10.344;2024-01-30T19:35:53;48.40;;;25.75;;
85668;SDS011;76101;44.794;10.344;2024-01-30T19:38:53;52.08;;;25.98;;
85668;SDS011;76101;44.794;10.344;2024-01-30T19:41:54;55.40;;;26.95;;
85668;SDS011;76101;44.794;10.344;2024-01-30T19:44:54;53.22;;;26.30;;
85668;SDS011;76101;44.794;10.344;2024-01-30T19:47:55;54.25;;;26.95;;
85668;SDS011;76101;44.794;10.344;2024-01-30T19:50:55;50.55;;;25.30;;
85668;SDS011;76101;44.794;10.344;2024-01-30T19:53:56;51.13;;;25.13;;
85668;SDS011;76101;44.794;10.344;2024-01-30T19:56:56;50.97;;;25.13;;